sensor_id;sensor_type;location;lat;lon;timestamp;pressure;altitude;pressure_sealevel;temperature;humidity
9129;BME280;4599;50.906;6.786;2023-04-20T00:00:57;17181.75;;;-142.83;45.57
9129;BME280;4599;50.906;6.786;2023-04-20T00:05:00;17177.66;;;-142.83;45.41
9129;BME280;4599;50.906;6.786;2023-04-20T00:09:02;17169.47;;;-142.83;45.41
9129;BME280;4599;50.906;6.786;2023-04-20T00:13:03;17228.78;;;-142.83;44.28
9129;BME280;4599;50.906;6.786;2023-04-20T00:17:04;17189.94;;;-142.83;44.13
9129;BME280;4599;50.906;6.786;2023-04-20T00:21:07;17200.16;;;-142.83;44.83
9129;BME280;4599;50.906;6.786;2023-04-20T00:25:09;17216.53;;;-142.83;44.03
9129;BME280;4599;50.906;6.786;2023-04-20T00:29:10;17234.94;;;-142.83;44.40
9129;BME280;4599;50.906;6.786;2023-04-20T00:33:12;17179.72;;;-142.83;43.98
9129;BME280;4599;50.906;6.786;2023-04-20T00:37:14;17218.56;;;-142.83;44.04
9129;BME280;4599;50.906;6.786;2023-04-20T00:41:16;17196.06;;;-142.83;43.41
9129;BME280;4599;50.906;6.786;2023-04-20T00:45:17;17216.53;;;-142.83;43.92
9129;BME280;4599;50.906;6.786;2023-04-20T00:49:19;17210.38;;;-142.83;42.65
9129;BME280;4599;50.906;6.786;2023-04-20T00:53:22;17245.16;;;-142.83;43.56
9129;BME280;4599;50.906;6.786;2023-04-20T00:57:24;17218.56;;;-142.83;43.41
9129;BME280;4599;50.906;6.786;2023-04-20T01:01:26;17218.56;;;-142.83;43.07
9129;BME280;4599;50.906;6.786;2023-04-20T01:05:28;17228.78;;;-142.83;42.61
9129;BME280;4599;50.906;6.786;2023-04-20T01:09:31;17234.94;;;-142.83;42.90
9129;BME280;4599;50.906;6.786;2023-04-20T01:13:32;17214.47;;;-142.83;43.09
9129;BME280;4599;50.906;6.786;2023-04-20T01:17:34;17212.44;;;-142.83;43.91
9129;BME280;4599;50.906;6.786;2023-04-20T01:21:36;17220.63;;;-142.83;43.94
9129;BME280;4599;50.906;6.786;2023-04-20T01:25:39;17236.97;;;-142.83;43.27
9129;BME280;4599;50.906;6.786;2023-04-20T01:29:40;17214.47;;;-142.83;43.97
9129;BME280;4599;50.906;6.786;2023-04-20T01:33:42;17191.97;;;-142.83;43.61
9129;BME280;4599;50.906;6.786;2023-04-20T01:37:44;17208.34;;;-142.83;43.97
9129;BME280;4599;50.906;6.786;2023-04-20T01:41:47;17189.94;;;-142.83;44.59
9129;BME280;4599;50.906;6.786;2023-04-20T01:45:48;17236.97;;;-142.83;43.60
9129;BME280;4599;50.906;6.786;2023-04-20T01:49:50;17204.25;;;-142.83;44.24
9129;BME280;4599;50.906;6.786;2023-04-20T01:53:51;17183.81;;;-142.83;44.40
9129;BME280;4599;50.906;6.786;2023-04-20T01:57:54;17216.53;;;-142.83;44.11
9129;BME280;4599;50.906;6.786;2023-04-20T02:01:55;17228.78;;;-142.83;44.02
9129;BME280;4599;50.906;6.786;2023-04-20T02:05:57;17202.22;;;-142.83;43.90
9129;BME280;4599;50.906;6.786;2023-04-20T02:09:58;17206.28;;;-142.83;43.75
9129;BME280;4599;50.906;6.786;2023-04-20T02:14:01;17196.06;;;-142.83;45.05
9129;BME280;4599;50.906;6.786;2023-04-20T02:18:03;17179.72;;;-142.83;44.25
9129;BME280;4599;50.906;6.786;2023-04-20T02:22:04;17177.66;;;-142.83;44.67
9129;BME280;4599;50.906;6.786;2023-04-20T02:26:06;17220.63;;;-142.83;44.14
9129;BME280;4599;50.906;6.786;2023-04-20T02:30:09;17189.94;;;-142.83;43.78
9129;BME280;4599;50.906;6.786;2023-04-20T02:34:11;17202.22;;;-142.83;43.70
9129;BME280;4599;50.906;6.786;2023-04-20T02:38:12;17214.47;;;-142.83;44.02
9129;BME280;4599;50.906;6.786;2023-04-20T02:42:14;17216.53;;;-142.83;43.24
9129;BME280;4599;50.906;6.786;2023-04-20T02:46:17;17222.66;;;-142.83;43.47
9129;BME280;4599;50.906;6.786;2023-04-20T02:50:19;17185.84;;;-142.83;44.22
9129;BME280;4599;50.906;6.786;2023-04-20T02:54:20;17196.06;;;-142.83;45.05
9129;BME280;4599;50.906;6.786;2023-04-20T02:58:22;17210.38;;;-142.83;46.14
9129;BME280;4599;50.906;6.786;2023-04-20T03:02:25;17171.53;;;-142.83;46.30
9129;BME280;4599;50.906;6.786;2023-04-20T03:06:26;17167.44;;;-142.83;45.68
9129;BME280;4599;50.906;6.786;2023-04-20T03:10:28;17159.25;;;-142.83;46.34
9129;BME280;4599;50.906;6.786;2023-04-20T03:14:29;17159.25;;;-142.83;45.22
9129;BME280;4599;50.906;6.786;2023-04-20T03:18:32;17196.06;;;-142.83;45.81
9129;BME280;4599;50.906;6.786;2023-04-20T03:22:34;17173.56;;;-142.83;45.13
9129;BME280;4599;50.906;6.786;2023-04-20T03:26:35;17200.16;;;-142.83;44.04
9129;BME280;4599;50.906;6.786;2023-04-20T03:30:37;17206.28;;;-142.83;44.82
9129;BME280;4599;50.906;6.786;2023-04-20T03:34:40;17165.38;;;-142.83;44.35
9129;BME280;4599;50.906;6.786;2023-04-20T03:38:41;17202.22;;;-142.83;43.90
9129;BME280;4599;50.906;6.786;2023-04-20T03:42:43;17214.47;;;-142.83;44.41
9129;BME280;4599;50.906;6.786;2023-04-20T03:46:44;17196.06;;;-142.83;44.63
9129;BME280;4599;50.906;6.786;2023-04-20T03:50:47;17202.22;;;-142.83;43.24
9129;BME280;4599;50.906;6.786;2023-04-20T03:54:48;17171.53;;;-142.83;43.97
9129;BME280;4599;50.906;6.786;2023-04-20T03:58:50;17165.38;;;-142.83;43.38
9129;BME280;4599;50.906;6.786;2023-04-20T04:02:51;17179.72;;;-142.83;43.38
9129;BME280;4599;50.906;6.786;2023-04-20T04:06:54;17183.81;;;-142.83;43.73
9129;BME280;4599;50.906;6.786;2023-04-20T04:10:56;17222.66;;;-142.83;42.90
9129;BME280;4599;50.906;6.786;2023-04-20T04:14:57;17175.63;;;-142.83;43.41
9129;BME280;4599;50.906;6.786;2023-04-20T04:18:59;17218.56;;;-142.83;43.82
9129;BME280;4599;50.906;6.786;2023-04-20T04:23:02;17157.22;;;-142.83;45.67
9129;BME280;4599;50.906;6.786;2023-04-20T04:27:04;17165.38;;;-142.83;46.83
9129;BME280;4599;50.906;6.786;2023-04-20T04:31:06;17146.97;;;-142.83;47.38
9129;BME280;4599;50.906;6.786;2023-04-20T04:35:08;17163.34;;;-142.83;46.97
9129;BME280;4599;50.906;6.786;2023-04-20T04:39:13;17118.34;;;-142.83;48.47
9129;BME280;4599;50.906;6.786;2023-04-20T04:43:15;17167.44;;;-142.83;47.77
9129;BME280;4599;50.906;6.786;2023-04-20T04:47:16;17142.91;;;-142.83;47.73
9129;BME280;4599;50.906;6.786;2023-04-20T04:51:18;17124.47;;;-142.83;48.24
9129;BME280;4599;50.906;6.786;2023-04-20T04:55:20;17136.75;;;-142.83;49.58
9129;BME280;4599;50.906;6.786;2023-04-20T04:59:22;17146.97;;;-142.83;49.28
9129;BME280;4599;50.906;6.786;2023-04-20T05:03:23;17126.53;;;-142.83;49.64
9129;BME280;4599;50.906;6.786;2023-04-20T05:07:25;17134.72;;;-142.83;51.06
9129;BME280;4599;50.906;6.786;2023-04-20T05:11:28;17102.00;;;-142.83;51.20
9129;BME280;4599;50.906;6.786;2023-04-20T05:15:30;17118.34;;;-142.83;53.96
9129;BME280;4599;50.906;6.786;2023-04-20T05:19:31;17108.13;;;-142.83;55.30
9129;BME280;4599;50.906;6.786;2023-04-20T05:23:33;17061.09;;;-142.83;59.05
9129;BME280;4599;50.906;6.786;2023-04-20T05:27:36;17044.72;;;-142.83;58.11
9129;BME280;4599;50.906;6.786;2023-04-20T05:31:37;17057.00;;;-142.83;58.45
9129;BME280;4599;50.906;6.786;2023-04-20T05:35:39;17050.84;;;-142.83;58.80
9129;BME280;4599;50.906;6.786;2023-04-20T05:39:40;17057.00;;;-142.83;59.84
9129;BME280;4599;50.906;6.786;2023-04-20T05:43:43;17044.72;;;-142.83;62.06
9129;BME280;4599;50.906;6.786;2023-04-20T05:47:51;16995.63;;;-142.83;63.44
9129;BME280;4599;50.906;6.786;2023-04-20T05:51:53;17020.19;;;-142.83;62.13
9129;BME280;4599;50.906;6.786;2023-04-20T05:55:54;17057.00;;;-142.83;62.11
9129;BME280;4599;50.906;6.786;2023-04-20T05:59:57;17040.63;;;-142.83;62.68
9129;BME280;4599;50.906;6.786;2023-04-20T06:03:58;17048.81;;;-142.83;62.97
9129;BME280;4599;50.906;6.786;2023-04-20T06:08:01;17052.91;;;-142.83;63.39
9129;BME280;4599;50.906;6.786;2023-04-20T06:12:03;16989.50;;;-142.83;65.04
9129;BME280;4599;50.906;6.786;2023-04-20T06:16:06;17016.09;;;-142.83;65.30
9129;BME280;4599;50.906;6.786;2023-04-20T06:20:09;17003.81;;;-142.83;65.72
9129;BME280;4599;50.906;6.786;2023-04-20T06:24:10;17036.53;;;-142.83;65.63
9129;BME280;4599;50.906;6.786;2023-04-20T06:28:12;17009.94;;;-142.83;66.08
9129;BME280;4599;50.906;6.786;2023-04-20T06:32:15;17014.03;;;-142.83;66.36
9129;BME280;4599;50.906;6.786;2023-04-20T06:36:16;16999.72;;;-142.83;66.78
9129;BME280;4599;50.906;6.786;2023-04-20T06:40:17;17020.19;;;-142.83;65.89
9129;BME280;4599;50.906;6.786;2023-04-20T06:44:19;17061.09;;;-142.83;65.96
9129;BME280;4599;50.906;6.786;2023-04-20T06:48:22;17001.78;;;-142.83;67.03
9129;BME280;4599;50.906;6.786;2023-04-20T06:52:33;17016.09;;;-142.83;68.59
9129;BME280;4599;50.906;6.786;2023-04-20T06:56:34;16971.09;;;-142.83;70.81
9129;BME280;4599;50.906;6.786;2023-04-20T07:00:36;16971.09;;;-142.83;68.84
9129;BME280;4599;50.906;6.786;2023-04-20T07:04:39;16979.28;;;-142.83;68.64
9129;BME280;4599;50.906;6.786;2023-04-20T07:08:40;16973.13;;;-142.83;69.21
9129;BME280;4599;50.906;6.786;2023-04-20T07:12:42;16973.13;;;-142.83;72.00
9129;BME280;4599;50.906;6.786;2023-04-20T07:16:44;16950.63;;;-142.83;72.44
9129;BME280;4599;50.906;6.786;2023-04-20T07:20:47;16958.81;;;-142.83;72.35
9129;BME280;4599;50.906;6.786;2023-04-20T07:24:48;16967.00;;;-142.83;72.87
9129;BME280;4599;50.906;6.786;2023-04-20T07:28:50;16981.31;;;-142.83;73.24
9129;BME280;4599;50.906;6.786;2023-04-20T07:32:52;16952.69;;;-142.83;74.94
9129;BME280;4599;50.906;6.786;2023-04-20T07:36:55;16971.09;;;-142.83;74.78
9129;BME280;4599;50.906;6.786;2023-04-20T07:40:56;16987.44;;;-142.83;74.16
9129;BME280;4599;50.906;6.786;2023-04-20T07:44:58;16954.72;;;-142.83;74.84
9129;BME280;4599;50.906;6.786;2023-04-20T07:48:59;16938.38;;;-142.83;74.48
9129;BME280;4599;50.906;6.786;2023-04-20T07:53:02;16954.72;;;-142.83;74.38
9129;BME280;4599;50.906;6.786;2023-04-20T07:57:03;16964.97;;;-142.83;75.90
9129;BME280;4599;50.906;6.786;2023-04-20T08:01:05;16987.44;;;-142.83;74.28
9129;BME280;4599;50.906;6.786;2023-04-20T08:05:07;16946.53;;;-142.83;74.73
9129;BME280;4599;50.906;6.786;2023-04-20T08:09:10;16979.28;;;-142.83;75.08
9129;BME280;4599;50.906;6.786;2023-04-20T08:13:13;16971.09;;;-142.83;75.06
9129;BME280;4599;50.906;6.786;2023-04-20T08:17:15;16995.63;;;-142.83;74.52
9129;BME280;4599;50.906;6.786;2023-04-20T08:21:16;17003.81;;;-142.83;73.12
9129;BME280;4599;50.906;6.786;2023-04-20T08:25:19;16960.88;;;-142.83;74.31
9129;BME280;4599;50.906;6.786;2023-04-20T08:29:21;16964.97;;;-142.83;74.12
9129;BME280;4599;50.906;6.786;2023-04-20T08:33:22;16971.09;;;-142.83;74.41
9129;BME280;4599;50.906;6.786;2023-04-20T08:37:23;16952.69;;;-142.83;74.43
9129;BME280;4599;50.906;6.786;2023-04-20T08:41:26;16995.63;;;-142.83;73.08
9129;BME280;4599;50.906;6.786;2023-04-20T08:45:28;16983.38;;;-142.83;74.80
9129;BME280;4599;50.906;6.786;2023-04-20T08:49:30;16969.03;;;-142.83;73.37
9129;BME280;4599;50.906;6.786;2023-04-20T08:53:32;16964.97;;;-142.83;74.05
9129;BME280;4599;50.906;6.786;2023-04-20T08:57:35;16967.00;;;-142.83;71.22
9129;BME280;4599;50.906;6.786;2023-04-20T09:01:37;16979.28;;;-142.83;72.03
9129;BME280;4599;50.906;6.786;2023-04-20T09:05:38;16967.00;;;-142.83;72.64
9129;BME280;4599;50.906;6.786;2023-04-20T09:09:39;17007.91;;;-142.83;71.50
9129;BME280;4599;50.906;6.786;2023-04-20T09:13:42;17007.91;;;-142.83;69.42
9129;BME280;4599;50.906;6.786;2023-04-20T09:17:44;17024.25;;;-142.83;69.14
9129;BME280;4599;50.906;6.786;2023-04-20T09:21:47;17040.63;;;-142.83;68.59
9129;BME280;4599;50.906;6.786;2023-04-20T09:25:50;17032.44;;;-142.83;68.91
9129;BME280;4599;50.906;6.786;2023-04-20T09:29:57;17069.25;;;-142.83;68.55
9129;BME280;4599;50.906;6.786;2023-04-20T09:33:59;17073.34;;;-142.83;68.29
9129;BME280;4599;50.906;6.786;2023-04-20T09:38:01;17073.34;;;-142.83;68.38
9129;BME280;4599;50.906;6.786;2023-04-20T09:42:03;17097.91;;;-142.83;66.65
9129;BME280;4599;50.906;6.786;2023-04-20T09:46:07;17038.59;;;-142.83;68.04
9129;BME280;4599;50.906;6.786;2023-04-20T09:50:10;17046.75;;;-142.83;67.45
9129;BME280;4599;50.906;6.786;2023-04-20T09:54:30;17044.72;;;-142.83;70.59
9129;BME280;4599;50.906;6.786;2023-04-20T09:58:33;17042.69;;;-142.83;70.87
9129;BME280;4599;50.906;6.786;2023-04-20T10:02:36;17032.44;;;-142.83;69.77
9129;BME280;4599;50.906;6.786;2023-04-20T10:06:39;17050.84;;;-142.83;68.10
9129;BME280;4599;50.906;6.786;2023-04-20T10:10:51;17028.34;;;-142.83;67.89
9129;BME280;4599;50.906;6.786;2023-04-20T10:14:54;17040.63;;;-142.83;70.44
9129;BME280;4599;50.906;6.786;2023-04-20T10:18:58;17065.16;;;-142.83;67.72
9129;BME280;4599;50.906;6.786;2023-04-20T10:23:06;17036.53;;;-142.83;68.21
9129;BME280;4599;50.906;6.786;2023-04-20T10:27:19;17034.50;;;-142.83;70.91
9129;BME280;4599;50.906;6.786;2023-04-20T10:31:21;17048.81;;;-142.83;71.85
9129;BME280;4599;50.906;6.786;2023-04-20T10:35:24;17138.81;;;-142.83;72.61
9129;BME280;4599;50.906;6.786;2023-04-20T10:39:26;17077.44;;;-142.83;67.77
9129;BME280;4599;50.906;6.786;2023-04-20T10:43:27;17020.19;;;-142.83;68.26
9129;BME280;4599;50.906;6.786;2023-04-20T10:47:30;16967.00;;;-142.83;71.13
9129;BME280;4599;50.906;6.786;2023-04-20T10:51:33;17014.03;;;-142.83;71.07
9129;BME280;4599;50.906;6.786;2023-04-20T10:55:35;17130.63;;;-142.83;70.48
9129;BME280;4599;50.906;6.786;2023-04-20T10:59:37;17261.53;;;-142.83;69.24
9129;BME280;4599;50.906;6.786;2023-04-20T11:03:38;17384.25;;;-142.83;63.82
9129;BME280;4599;50.906;6.786;2023-04-20T11:07:49;17371.97;;;-142.83;60.62
9129;BME280;4599;50.906;6.786;2023-04-20T11:11:57;17261.53;;;-142.83;61.42
9129;BME280;4599;50.906;6.786;2023-04-20T11:16:08;17232.88;;;-142.83;60.09
9129;BME280;4599;50.906;6.786;2023-04-20T11:20:12;17167.44;;;-142.83;62.01
9129;BME280;4599;50.906;6.786;2023-04-20T11:24:18;17177.66;;;-142.83;62.26
9129;BME280;4599;50.906;6.786;2023-04-20T11:28:19;17226.75;;;-142.83;64.30
9129;BME280;4599;50.906;6.786;2023-04-20T11:32:21;17167.44;;;-142.83;64.39
9129;BME280;4599;50.906;6.786;2023-04-20T11:36:25;17204.25;;;-142.83;62.18
9129;BME280;4599;50.906;6.786;2023-04-20T11:40:28;17208.34;;;-142.83;61.97
9129;BME280;4599;50.906;6.786;2023-04-20T11:44:30;17206.28;;;-142.83;61.05
9129;BME280;4599;50.906;6.786;2023-04-20T11:48:31;17200.16;;;-142.83;60.36
9129;BME280;4599;50.906;6.786;2023-04-20T11:52:33;17226.75;;;-142.83;58.02
9129;BME280;4599;50.906;6.786;2023-04-20T11:56:35;17247.19;;;-142.83;56.91
9129;BME280;4599;50.906;6.786;2023-04-20T12:00:37;17245.16;;;-142.83;56.98
9129;BME280;4599;50.906;6.786;2023-04-20T12:04:38;17472.19;;;-142.83;55.68
9129;BME280;4599;50.906;6.786;2023-04-20T12:08:40;17236.97;;;-142.83;56.28
9129;BME280;4599;50.906;6.786;2023-04-20T12:12:43;17234.94;;;-142.83;55.72
9129;BME280;4599;50.906;6.786;2023-04-20T12:16:44;17445.59;;;-142.83;54.38
9129;BME280;4599;50.906;6.786;2023-04-20T12:20:46;17343.34;;;-142.83;53.58
9129;BME280;4599;50.906;6.786;2023-04-20T12:24:47;17480.38;;;-142.83;53.85
9129;BME280;4599;50.906;6.786;2023-04-20T12:28:50;17388.34;;;-142.83;52.96
9129;BME280;4599;50.906;6.786;2023-04-20T12:32:51;17592.88;;;-142.83;51.84
9129;BME280;4599;50.906;6.786;2023-04-20T12:36:53;17693.13;;;-142.83;49.24
9129;BME280;4599;50.906;6.786;2023-04-20T12:40:54;17646.06;;;-142.83;46.34
9129;BME280;4599;50.906;6.786;2023-04-20T12:44:57;17551.97;;;-142.83;47.31
9129;BME280;4599;50.906;6.786;2023-04-20T12:48:59;17511.06;;;-142.83;48.56
9129;BME280;4599;50.906;6.786;2023-04-20T12:53:00;17320.84;;;-142.83;51.95
9129;BME280;4599;50.906;6.786;2023-04-20T12:57:02;17376.06;;;-142.83;50.87
9129;BME280;4599;50.906;6.786;2023-04-20T13:01:05;17416.97;;;-142.83;49.74
9129;BME280;4599;50.906;6.786;2023-04-20T13:05:07;17601.06;;;-142.83;49.36
9129;BME280;4599;50.906;6.786;2023-04-20T13:09:09;17609.25;;;-142.83;48.04
9129;BME280;4599;50.906;6.786;2023-04-20T13:13:10;17668.56;;;-142.83;46.61
9129;BME280;4599;50.906;6.786;2023-04-20T13:17:13;17723.81;;;-142.83;45.29
9129;BME280;4599;50.906;6.786;2023-04-20T13:21:14;17707.44;;;-142.83;45.45
9129;BME280;4599;50.906;6.786;2023-04-20T13:25:16;17766.75;;;-142.83;44.43
9129;BME280;4599;50.906;6.786;2023-04-20T13:29:17;17727.91;;;-142.83;44.45
9129;BME280;4599;50.906;6.786;2023-04-20T13:33:21;17793.34;;;-142.83;45.13
9129;BME280;4599;50.906;6.786;2023-04-20T13:37:22;17682.88;;;-142.83;43.12
9129;BME280;4599;50.906;6.786;2023-04-20T13:41:24;17723.81;;;-142.83;42.53
9129;BME280;4599;50.906;6.786;2023-04-20T13:45:25;17748.34;;;-142.83;43.38
9129;BME280;4599;50.906;6.786;2023-04-20T13:49:28;17862.91;;;-142.83;39.06
9129;BME280;4599;50.906;6.786;2023-04-20T13:53:29;17725.84;;;-142.83;39.64
9129;BME280;4599;50.906;6.786;2023-04-20T13:57:31;17793.34;;;-142.83;39.85
9129;BME280;4599;50.906;6.786;2023-04-20T14:01:32;17744.25;;;-142.83;39.63
9129;BME280;4599;50.906;6.786;2023-04-20T14:05:36;17725.84;;;-142.83;39.89
9129;BME280;4599;50.906;6.786;2023-04-20T14:09:38;17731.97;;;-142.83;41.58
9129;BME280;4599;50.906;6.786;2023-04-20T14:13:40;17756.53;;;-142.83;40.28
9129;BME280;4599;50.906;6.786;2023-04-20T14:17:41;17736.06;;;-142.83;41.15
9129;BME280;4599;50.906;6.786;2023-04-20T14:21:44;17650.16;;;-142.83;40.66
9129;BME280;4599;50.906;6.786;2023-04-20T14:25:45;17664.47;;;-142.83;39.51
9129;BME280;4599;50.906;6.786;2023-04-20T14:29:47;17682.88;;;-142.83;40.06
9129;BME280;4599;50.906;6.786;2023-04-20T14:33:49;17623.56;;;-142.83;39.49
9129;BME280;4599;50.906;6.786;2023-04-20T14:37:52;17527.44;;;-142.83;40.88
9129;BME280;4599;50.906;6.786;2023-04-20T14:41:54;17621.53;;;-142.83;40.81
9129;BME280;4599;50.906;6.786;2023-04-20T14:45:55;17682.88;;;-142.83;41.07
9129;BME280;4599;50.906;6.786;2023-04-20T14:49:57;17615.38;;;-142.83;41.79
9129;BME280;4599;50.906;6.786;2023-04-20T14:54:00;17605.16;;;-142.83;41.22
9129;BME280;4599;50.906;6.786;2023-04-20T14:58:01;17658.34;;;-142.83;40.82
9129;BME280;4599;50.906;6.786;2023-04-20T15:02:03;17652.22;;;-142.83;40.10
9129;BME280;4599;50.906;6.786;2023-04-20T15:06:05;17644.03;;;-142.83;40.06
9129;BME280;4599;50.906;6.786;2023-04-20T15:10:08;17629.72;;;-142.83;39.61
9129;BME280;4599;50.906;6.786;2023-04-20T15:14:10;17590.84;;;-142.83;39.87
9129;BME280;4599;50.906;6.786;2023-04-20T15:18:11;17625.63;;;-142.83;40.44
9129;BME280;4599;50.906;6.786;2023-04-20T15:22:13;17662.44;;;-142.83;40.41
9129;BME280;4599;50.906;6.786;2023-04-20T15:26:15;17682.88;;;-142.83;40.31
9129;BME280;4599;50.906;6.786;2023-04-20T15:30:17;17617.44;;;-142.83;40.78
9129;BME280;4599;50.906;6.786;2023-04-20T15:34:19;17644.03;;;-142.83;39.86
9129;BME280;4599;50.906;6.786;2023-04-20T15:38:21;17631.75;;;-142.83;41.73
9129;BME280;4599;50.906;6.786;2023-04-20T15:42:24;17609.25;;;-142.83;41.10
9129;BME280;4599;50.906;6.786;2023-04-20T15:46:25;17650.16;;;-142.83;41.10
9129;BME280;4599;50.906;6.786;2023-04-20T15:50:27;17633.78;;;-142.83;41.29
9129;BME280;4599;50.906;6.786;2023-04-20T15:54:29;17621.53;;;-142.83;39.56
9129;BME280;4599;50.906;6.786;2023-04-20T15:58:32;17631.75;;;-142.83;40.08
9129;BME280;4599;50.906;6.786;2023-04-20T16:02:34;17564.25;;;-142.83;41.44
9129;BME280;4599;50.906;6.786;2023-04-20T16:06:39;17588.78;;;-142.83;41.12
9129;BME280;4599;50.906;6.786;2023-04-20T16:10:41;17574.47;;;-142.83;41.07
9129;BME280;4599;50.906;6.786;2023-04-20T16:14:43;17568.34;;;-142.83;41.73
9129;BME280;4599;50.906;6.786;2023-04-20T16:18:45;17582.66;;;-142.83;41.80
9129;BME280;4599;50.906;6.786;2023-04-20T16:22:46;17580.63;;;-142.83;40.74
9129;BME280;4599;50.906;6.786;2023-04-20T16:26:48;17537.66;;;-142.83;40.56
9129;BME280;4599;50.906;6.786;2023-04-20T16:30:51;17535.59;;;-142.83;40.78
9129;BME280;4599;50.906;6.786;2023-04-20T16:34:53;17564.25;;;-142.83;41.20
9129;BME280;4599;50.906;6.786;2023-04-20T16:38:54;17580.63;;;-142.83;40.32
9129;BME280;4599;50.906;6.786;2023-04-20T16:42:56;17601.06;;;-142.83;40.70
9129;BME280;4599;50.906;6.786;2023-04-20T16:46:59;17627.66;;;-142.83;40.61
9129;BME280;4599;50.906;6.786;2023-04-20T16:51:00;17580.63;;;-142.83;40.75
9129;BME280;4599;50.906;6.786;2023-04-20T16:55:02;17568.34;;;-142.83;40.30
9129;BME280;4599;50.906;6.786;2023-04-20T16:59:04;17580.63;;;-142.83;39.91
9129;BME280;4599;50.906;6.786;2023-04-20T17:03:07;17525.38;;;-142.83;40.04
9129;BME280;4599;50.906;6.786;2023-04-20T17:07:08;17421.06;;;-142.83;44.50
9129;BME280;4599;50.906;6.786;2023-04-20T17:11:10;17406.75;;;-142.83;47.24
9129;BME280;4599;50.906;6.786;2023-04-20T17:15:11;17369.94;;;-142.83;48.40
9129;BME280;4599;50.906;6.786;2023-04-20T17:19:14;17339.25;;;-142.83;49.30
9129;BME280;4599;50.906;6.786;2023-04-20T17:23:16;17347.44;;;-142.83;49.06
9129;BME280;4599;50.906;6.786;2023-04-20T17:27:18;17331.06;;;-142.83;48.76
9129;BME280;4599;50.906;6.786;2023-04-20T17:31:20;17351.53;;;-142.83;49.23
9129;BME280;4599;50.906;6.786;2023-04-20T17:35:23;17320.84;;;-142.83;49.08
9129;BME280;4599;50.906;6.786;2023-04-20T17:39:25;17316.75;;;-142.83;50.17
9129;BME280;4599;50.906;6.786;2023-04-20T17:43:26;17277.88;;;-142.83;52.64
9129;BME280;4599;50.906;6.786;2023-04-20T17:47:28;17241.06;;;-142.83;55.94
9129;BME280;4599;50.906;6.786;2023-04-20T17:51:31;17261.53;;;-142.83;54.55
9129;BME280;4599;50.906;6.786;2023-04-20T17:55:32;17263.56;;;-142.83;54.81
9129;BME280;4599;50.906;6.786;2023-04-20T17:59:34;17241.06;;;-142.83;54.30
9129;BME280;4599;50.906;6.786;2023-04-20T18:03:35;17241.06;;;-142.83;54.09
9129;BME280;4599;50.906;6.786;2023-04-20T18:07:39;17296.28;;;-142.83;53.98
9129;BME280;4599;50.906;6.786;2023-04-20T18:11:40;17279.94;;;-142.83;54.28
9129;BME280;4599;50.906;6.786;2023-04-20T18:15:41;17263.56;;;-142.83;56.34
9129;BME280;4599;50.906;6.786;2023-04-20T18:19:43;17204.25;;;-142.83;58.54
9129;BME280;4599;50.906;6.786;2023-04-20T18:23:46;17236.97;;;-142.83;58.34
9129;BME280;4599;50.906;6.786;2023-04-20T18:27:47;17177.66;;;-142.83;59.05
9129;BME280;4599;50.906;6.786;2023-04-20T18:31:48;17236.97;;;-142.83;59.00
9129;BME280;4599;50.906;6.786;2023-04-20T18:35:50;17228.78;;;-142.83;59.55
9129;BME280;4599;50.906;6.786;2023-04-20T18:39:53;17216.53;;;-142.83;58.57
9129;BME280;4599;50.906;6.786;2023-04-20T18:43:55;17187.88;;;-142.83;58.95
9129;BME280;4599;50.906;6.786;2023-04-20T18:47:56;17228.78;;;-142.83;58.54
9129;BME280;4599;50.906;6.786;2023-04-20T18:51:58;17236.97;;;-142.83;57.32
9129;BME280;4599;50.906;6.786;2023-04-20T18:56:01;17232.88;;;-142.83;57.69
9129;BME280;4599;50.906;6.786;2023-04-20T19:00:03;17226.75;;;-142.83;58.19
9129;BME280;4599;50.906;6.786;2023-04-20T19:04:05;17220.63;;;-142.83;57.80
9129;BME280;4599;50.906;6.786;2023-04-20T19:08:07;17236.97;;;-142.83;57.02
9129;BME280;4599;50.906;6.786;2023-04-20T19:12:10;17222.66;;;-142.83;57.37
9129;BME280;4599;50.906;6.786;2023-04-20T19:16:11;17216.53;;;-142.83;57.38
9129;BME280;4599;50.906;6.786;2023-04-20T19:20:13;17259.47;;;-142.83;57.02
9129;BME280;4599;50.906;6.786;2023-04-20T19:24:14;17204.25;;;-142.83;58.11
9129;BME280;4599;50.906;6.786;2023-04-20T19:28:18;17220.63;;;-142.83;59.19
9129;BME280;4599;50.906;6.786;2023-04-20T19:32:19;17153.13;;;-142.83;60.12
9129;BME280;4599;50.906;6.786;2023-04-20T19:36:21;17202.22;;;-142.83;59.90
9129;BME280;4599;50.906;6.786;2023-04-20T19:40:23;17200.16;;;-142.83;59.91
9129;BME280;4599;50.906;6.786;2023-04-20T19:44:25;17189.94;;;-142.83;60.84
9129;BME280;4599;50.906;6.786;2023-04-20T19:48:27;17208.34;;;-142.83;61.44
9129;BME280;4599;50.906;6.786;2023-04-20T19:52:28;17142.91;;;-142.83;64.37
9129;BME280;4599;50.906;6.786;2023-04-20T19:56:30;17151.06;;;-142.83;64.41
9129;BME280;4599;50.906;6.786;2023-04-20T20:00:33;17122.44;;;-142.83;64.18
9129;BME280;4599;50.906;6.786;2023-04-20T20:04:34;17130.63;;;-142.83;66.24
9129;BME280;4599;50.906;6.786;2023-04-20T20:08:36;17126.53;;;-142.83;66.25
9129;BME280;4599;50.906;6.786;2023-04-20T20:12:38;17075.41;;;-142.83;68.32
9129;BME280;4599;50.906;6.786;2023-04-20T20:16:41;17126.53;;;-142.83;68.01
9129;BME280;4599;50.906;6.786;2023-04-20T20:20:42;17099.94;;;-142.83;70.25
9129;BME280;4599;50.906;6.786;2023-04-20T20:24:44;17110.16;;;-142.83;70.00
9129;BME280;4599;50.906;6.786;2023-04-20T20:28:45;17091.75;;;-142.83;70.98
9129;BME280;4599;50.906;6.786;2023-04-20T20:32:48;17146.97;;;-142.83;69.17
9129;BME280;4599;50.906;6.786;2023-04-20T20:36:50;17102.00;;;-142.83;69.88
9129;BME280;4599;50.906;6.786;2023-04-20T20:40:51;17104.03;;;-142.83;70.89
9129;BME280;4599;50.906;6.786;2023-04-20T20:44:53;17108.13;;;-142.83;70.91
9129;BME280;4599;50.906;6.786;2023-04-20T20:48:56;17083.56;;;-142.83;72.05
9129;BME280;4599;50.906;6.786;2023-04-20T20:53:02;17083.56;;;-142.83;74.87
9129;BME280;4599;50.906;6.786;2023-04-20T20:57:03;17089.72;;;-142.83;75.58
9129;BME280;4599;50.906;6.786;2023-04-20T21:01:05;17079.50;;;-142.83;76.97
9129;BME280;4599;50.906;6.786;2023-04-20T21:05:08;17110.16;;;-142.83;75.13
9129;BME280;4599;50.906;6.786;2023-04-20T21:09:09;17087.66;;;-142.83;72.11
9129;BME280;4599;50.906;6.786;2023-04-20T21:13:11;17069.25;;;-142.83;73.51
9129;BME280;4599;50.906;6.786;2023-04-20T21:17:12;17065.16;;;-142.83;73.99
9129;BME280;4599;50.906;6.786;2023-04-20T21:21:15;17075.41;;;-142.83;74.68